createdAt,value
2017-05-06T00:01:26.528Z,88.20
2017-05-06T00:03:54.473Z,88.20
2017-05-06T00:06:22.429Z,88.10
2017-05-06T00:11:19.733Z,88.20
2017-05-06T00:16:17.741Z,89.30
2017-05-06T00:18:46.058Z,88.70
2017-05-06T00:21:15.118Z,89.10
2017-05-06T00:23:43.505Z,88.30
2017-05-06T00:26:11.451Z,88.30
2017-05-06T00:28:39.393Z,88.20
2017-05-06T00:31:08.093Z,88.40
2017-05-06T00:33:36.431Z,88.80
2017-05-06T00:38:33.913Z,88.70
2017-05-06T00:43:31.168Z,88.90
2017-05-06T00:45:59.545Z,88.30
2017-05-06T00:48:28.605Z,88.40
2017-05-06T00:50:56.917Z,89.60
2017-05-06T00:58:23.639Z,90.00
2017-05-06T01:00:52.009Z,89.60
2017-05-06T01:03:20.325Z,89.90
2017-05-06T01:05:48.277Z,90.00
2017-05-06T01:08:17.386Z,89.80
2017-05-06T01:10:45.701Z,89.90
2017-05-06T01:13:13.641Z,90.00
2017-05-06T01:15:41.644Z,89.70
2017-05-06T01:18:10.324Z,90.20
2017-05-06T01:20:38.656Z,90.10
2017-05-06T01:28:05.190Z,90.10
2017-05-06T01:30:33.568Z,90.20
2017-05-06T01:35:31.173Z,89.90
2017-05-06T01:37:59.838Z,90.20
2017-05-06T01:40:28.521Z,90.20
2017-05-06T01:42:56.837Z,90.40
2017-05-06T01:45:25.024Z,90.20
2017-05-06T01:47:52.977Z,90.10
2017-05-06T01:57:48.084Z,89.70
2017-05-06T02:00:16.456Z,90.20
2017-05-06T02:02:44.414Z,89.80
2017-05-06T02:05:12.729Z,89.80
2017-05-06T02:07:41.373Z,89.80
2017-05-06T02:10:10.425Z,89.10
2017-05-06T02:12:38.745Z,89.20
2017-05-06T02:15:07.022Z,89.10
2017-05-06T02:17:34.977Z,89.00
2017-05-06T02:20:03.318Z,90.10
2017-05-06T02:22:31.821Z,88.90
2017-05-06T02:24:59.769Z,89.10
2017-05-06T02:27:28.085Z,88.90
2017-05-06T02:32:24.989Z,89.00
2017-05-06T02:37:22.269Z,89.50
2017-05-06T02:42:19.513Z,89.10
2017-05-06T02:44:47.880Z,89.10
2017-05-06T02:47:15.821Z,88.50
2017-05-06T02:49:44.137Z,88.50
2017-05-06T02:52:12.513Z,88.40
2017-05-06T02:54:40.457Z,88.30
2017-05-06T02:57:08.781Z,88.30
2017-05-06T03:02:06.577Z,88.30
2017-05-06T03:07:04.193Z,88.60
2017-05-06T03:09:32.901Z,88.30
2017-05-06T03:12:00.853Z,88.20
2017-05-06T03:14:28.852Z,88.30
2017-05-06T03:16:57.533Z,88.40
2017-05-06T03:24:23.337Z,88.20
2017-05-06T03:26:52.402Z,88.80
2017-05-06T03:29:20.773Z,88.80
2017-05-06T03:31:48.717Z,88.00
2017-05-06T03:34:17.030Z,88.60
2017-05-06T03:39:14.673Z,88.00
2017-05-06T03:41:43.017Z,88.10
2017-05-06T03:44:11.005Z,87.90
2017-05-06T03:46:39.317Z,88.60
2017-05-06T03:49:08.392Z,88.60
2017-05-06T03:56:35.005Z,87.70
2017-05-06T03:59:03.034Z,87.70
2017-05-06T04:01:30.981Z,87.90
2017-05-06T04:03:58.924Z,88.10
2017-05-06T04:06:27.301Z,88.30
2017-05-06T04:08:55.257Z,87.80
2017-05-06T04:11:23.581Z,88.00
2017-05-06T04:13:51.978Z,87.60
2017-05-06T04:16:20.301Z,87.70
2017-05-06T04:18:48.246Z,87.70
2017-05-06T04:26:14.069Z,88.10
2017-05-06T04:28:42.632Z,88.70
2017-05-06T04:31:10.585Z,88.20
2017-05-06T04:33:38.545Z,88.30
2017-05-06T04:36:06.562Z,88.60
2017-05-06T04:38:34.914Z,89.30
2017-05-06T04:43:32.993Z,88.90
2017-05-06T04:46:00.936Z,89.00
2017-05-06T04:48:29.257Z,89.30
2017-05-06T04:50:57.262Z,89.30
2017-05-06T04:53:25.577Z,89.60
2017-05-06T04:55:53.544Z,90.00
2017-05-06T04:58:21.949Z,90.00
2017-05-06T05:00:50.272Z,90.20
2017-05-06T05:05:48.180Z,90.40
2017-05-06T05:08:16.125Z,90.50
2017-05-06T05:10:44.074Z,90.70
2017-05-06T05:13:12.436Z,90.80
2017-05-06T05:15:40.385Z,90.90
2017-05-06T05:18:08.339Z,91.20
2017-05-06T05:20:37.725Z,91.40
2017-05-06T05:23:06.807Z,91.20
2017-05-06T05:25:34.777Z,91.40
2017-05-06T05:28:03.538Z,91.40
2017-05-06T05:30:31.485Z,91.50
2017-05-06T05:32:59.425Z,91.40
2017-05-06T05:35:28.165Z,91.70
2017-05-06T05:37:56.481Z,91.70
2017-05-06T05:42:54.133Z,91.30
2017-05-06T05:52:49.237Z,91.40
2017-05-06T05:55:18.293Z,91.50
2017-05-06T05:57:46.286Z,90.80
2017-05-06T06:00:14.229Z,90.60
2017-05-06T06:02:42.545Z,90.80
2017-05-06T06:05:11.281Z,90.80
2017-05-06T06:07:39.593Z,91.20
2017-05-06T06:10:07.925Z,90.80
2017-05-06T06:12:37.064Z,90.60
2017-05-06T06:15:05.025Z,90.10
2017-05-06T06:17:33.357Z,90.50
2017-05-06T06:20:01.717Z,90.30
2017-05-06T06:22:30.032Z,90.20
2017-05-06T06:24:57.977Z,89.90
2017-05-06T06:29:55.512Z,89.90
2017-05-06T06:34:55.138Z,89.10
2017-05-06T06:37:23.837Z,88.60
2017-05-06T06:39:52.162Z,87.40
2017-05-06T06:42:20.163Z,87.30
2017-05-06T06:44:48.480Z,86.30
2017-05-06T06:47:16.433Z,86.30
2017-05-06T06:49:44.433Z,85.30
2017-05-06T06:52:12.754Z,84.60
2017-05-06T06:54:40.701Z,83.70
2017-05-06T06:57:09.081Z,82.30
2017-05-06T06:59:37.407Z,79.90
2017-05-06T07:02:05.737Z,78.80
2017-05-06T07:04:34.126Z,79.70
2017-05-06T07:07:02.078Z,78.80
2017-05-06T07:11:59.985Z,77.20
2017-05-06T07:14:28.674Z,77.40
2017-05-06T07:16:56.992Z,76.50
2017-05-06T07:19:26.252Z,76.90
2017-05-06T07:21:54.206Z,75.90
2017-05-06T07:24:22.154Z,73.60
2017-05-06T07:26:51.270Z,74.60
2017-05-06T07:29:20.325Z,71.50
2017-05-06T07:31:48.266Z,71.80
2017-05-06T07:34:17.489Z,69.70
2017-05-06T07:36:45.805Z,71.10
2017-05-06T07:41:43.441Z,68.70
2017-05-06T07:44:11.385Z,68.40
2017-05-06T07:46:39.697Z,67.50
2017-05-06T07:49:08.064Z,66.50
2017-05-06T07:54:05.309Z,66.70
2017-05-06T07:56:33.982Z,65.90
2017-05-06T07:59:03.049Z,63.80
2017-05-06T08:01:31.736Z,61.80
2017-05-06T08:04:00.106Z,61.60
2017-05-06T08:06:28.048Z,61.60
2017-05-06T08:08:55.989Z,63.30
2017-05-06T08:11:24.361Z,59.80
2017-05-06T08:13:52.317Z,60.30
2017-05-06T08:16:20.632Z,58.30
2017-05-06T08:18:48.625Z,59.50
2017-05-06T08:24:11.385Z,55.80
2017-05-06T08:26:39.329Z,56.00
2017-05-06T08:29:07.646Z,56.40
2017-05-06T08:34:04.947Z,56.20
2017-05-06T08:36:33.282Z,53.10
2017-05-06T08:39:01.665Z,53.50
2017-05-06T08:41:29.609Z,51.40
2017-05-06T08:43:57.553Z,51.30
2017-05-06T08:46:27.021Z,51.40
2017-05-06T08:48:56.065Z,49.20
2017-05-06T08:51:24.022Z,49.80
2017-05-06T08:53:52.768Z,47.70
2017-05-06T08:56:21.086Z,47.40
2017-05-06T09:01:18.721Z,46.10
2017-05-06T09:03:47.037Z,43.90
2017-05-06T09:06:15.353Z,44.50
2017-05-06T09:08:43.353Z,45.10
2017-05-06T09:11:11.663Z,43.20
2017-05-06T09:13:39.973Z,44.10
2017-05-06T09:16:08.213Z,43.60
2017-05-06T09:18:36.179Z,43.40
2017-05-06T09:21:04.505Z,44.50
2017-05-06T09:23:33.621Z,42.60
2017-05-06T09:26:07.692Z,40.10
2017-05-06T09:28:35.697Z,40.90
2017-05-06T09:31:04.012Z,39.10
2017-05-06T09:33:31.953Z,40.00
2017-05-06T09:35:59.949Z,39.00
2017-05-06T09:38:28.537Z,38.50
2017-05-06T09:40:56.477Z,38.10
2017-05-06T09:48:23.012Z,36.50
2017-05-06T09:50:51.385Z,39.70
2017-05-06T09:53:19.706Z,37.90
2017-05-06T09:55:47.652Z,37.00
2017-05-06T10:00:45.252Z,34.60
2017-05-06T10:03:13.628Z,33.50
2017-05-06T10:05:41.986Z,35.70
2017-05-06T10:08:10.300Z,34.50
2017-05-06T10:13:07.578Z,33.60
2017-05-06T10:15:35.909Z,33.50
2017-05-06T10:18:03.863Z,34.00
2017-05-06T10:20:33.549Z,32.90
2017-05-06T10:23:02.235Z,34.10
2017-05-06T10:25:31.289Z,32.60
2017-05-06T10:30:29.616Z,33.10
2017-05-06T10:32:57.925Z,34.70
2017-05-06T10:35:26.661Z,31.30
2017-05-06T10:37:54.969Z,32.50
2017-05-06T10:40:22.925Z,34.50
2017-05-06T10:42:50.952Z,32.10
2017-05-06T10:45:19.269Z,32.90
2017-05-06T10:47:47.945Z,33.10
2017-05-06T10:50:16.645Z,31.60
2017-05-06T10:52:45.329Z,31.50
2017-05-06T10:55:14.377Z,33.00
2017-05-06T11:00:11.633Z,34.60
2017-05-06T11:02:40.680Z,32.30
2017-05-06T11:05:09.051Z,32.30
2017-05-06T11:07:37.382Z,33.80
2017-05-06T11:12:34.593Z,34.30
2017-05-06T11:15:03.664Z,34.60
2017-05-06T11:17:32.724Z,33.80
2017-05-06T11:20:00.724Z,33.90
2017-05-06T11:22:28.665Z,31.70
2017-05-06T11:24:56.973Z,32.70
2017-05-06T11:27:25.711Z,32.20
2017-05-06T11:37:21.294Z,29.10
2017-05-06T11:39:50.344Z,28.70
2017-05-06T11:42:19.040Z,29.50
2017-05-06T11:44:48.089Z,30.10
2017-05-06T11:47:16.769Z,31.70
2017-05-06T11:49:44.762Z,31.50
2017-05-06T11:52:12.701Z,31.90
2017-05-06T11:59:38.490Z,30.00
2017-05-06T12:02:06.809Z,28.40
2017-05-06T12:04:35.652Z,29.50
2017-05-06T12:07:03.990Z,31.30
2017-05-06T12:09:33.060Z,34.00
2017-05-06T12:14:31.221Z,30.90
2017-05-06T12:16:59.157Z,31.20
2017-05-06T12:19:27.870Z,31.20
2017-05-06T12:21:56.549Z,28.80
2017-05-06T12:26:53.778Z,29.20
2017-05-06T12:29:22.818Z,30.10
2017-05-06T12:31:51.149Z,29.30
2017-05-06T12:36:48.747Z,28.40
2017-05-06T12:39:17.658Z,27.40
2017-05-06T12:41:46.454Z,26.20
2017-05-06T12:46:43.610Z,28.50
2017-05-06T12:49:12.686Z,28.10
2017-05-06T12:51:41.430Z,29.40
2017-05-06T12:54:09.718Z,28.10
2017-05-06T12:59:07.710Z,28.50
2017-05-06T13:04:05.326Z,26.80
2017-05-06T13:06:33.634Z,28.90
2017-05-06T13:09:01.576Z,29.10
2017-05-06T13:11:30.689Z,30.30
2017-05-06T13:13:58.979Z,30.20
2017-05-06T13:16:27.273Z,30.70
2017-05-06T13:21:24.119Z,31.30
2017-05-06T13:23:52.043Z,31.30
2017-05-06T13:26:20.386Z,32.00
2017-05-06T13:33:46.923Z,33.40
2017-05-06T13:36:15.587Z,34.50
2017-05-06T13:38:43.874Z,34.80
2017-05-06T13:41:11.790Z,33.90
2017-05-06T13:46:09.335Z,35.10
2017-05-06T13:48:37.638Z,35.20
2017-05-06T13:51:05.909Z,37.70
2017-05-06T13:53:33.842Z,38.80
2017-05-06T13:56:02.164Z,38.80
2017-05-06T13:58:30.478Z,39.90
2017-05-06T14:04:08.116Z,39.30
2017-05-06T14:06:37.175Z,40.50
2017-05-06T14:09:05.514Z,41.00
2017-05-06T14:11:33.456Z,39.80
2017-05-06T14:16:30.707Z,41.70
2017-05-06T14:23:56.818Z,44.00
2017-05-06T14:26:25.850Z,42.20
2017-05-06T14:28:54.652Z,43.60
2017-05-06T14:31:23.340Z,44.50
2017-05-06T14:33:52.817Z,44.70
2017-05-06T14:36:22.221Z,47.00
2017-05-06T14:38:50.146Z,44.20
2017-05-06T14:41:18.439Z,43.80
2017-05-06T14:43:46.782Z,44.80
2017-05-06T14:48:43.958Z,45.10
2017-05-06T14:51:12.310Z,45.70
2017-05-06T14:56:10.241Z,45.50
2017-05-06T15:06:05.081Z,46.60
2017-05-06T15:08:33.011Z,48.20
2017-05-06T15:13:30.247Z,48.30
2017-05-06T15:20:56.545Z,47.20
2017-05-06T15:23:24.468Z,47.00
2017-05-06T15:33:19.882Z,49.50
2017-05-06T15:35:49.060Z,48.00
2017-05-06T15:40:46.239Z,47.30
2017-05-06T15:45:43.467Z,48.10
2017-05-06T15:48:11.393Z,47.60
2017-05-06T15:50:39.735Z,48.50
2017-05-06T15:53:08.054Z,49.60
2017-05-06T15:55:36.379Z,48.30
2017-05-06T15:58:04.749Z,48.00
2017-05-06T16:00:33.059Z,48.90
2017-05-06T16:03:02.099Z,49.30
2017-05-06T16:05:30.454Z,49.00
2017-05-06T16:07:58.390Z,49.60
2017-05-06T16:10:26.690Z,49.40
2017-05-06T16:12:55.778Z,49.80
2017-05-06T16:15:24.095Z,48.70
2017-05-06T16:17:52.408Z,50.50
2017-05-06T16:22:50.291Z,50.70
2017-05-06T16:25:18.594Z,50.20
2017-05-06T16:27:46.938Z,50.10
2017-05-06T16:30:15.239Z,50.20
2017-05-06T16:32:43.538Z,50.90
2017-05-06T16:37:41.034Z,50.60
2017-05-06T16:40:10.080Z,49.70
2017-05-06T16:42:38.683Z,50.50
2017-05-06T16:45:07.745Z,50.30
2017-05-06T16:47:36.071Z,49.50
2017-05-06T16:50:04.442Z,51.60
2017-05-06T16:52:32.777Z,51.00
2017-05-06T16:55:00.714Z,51.20
2017-05-06T16:57:29.063Z,49.50
2017-05-06T16:59:58.108Z,52.30
2017-05-06T17:02:26.778Z,52.60
2017-05-06T17:09:52.554Z,51.60
2017-05-06T17:12:20.542Z,51.10
2017-05-06T17:14:48.483Z,51.40
2017-05-06T17:17:16.792Z,51.90
2017-05-06T17:19:45.871Z,52.80
2017-05-06T17:22:14.923Z,53.20
2017-05-06T17:24:43.595Z,52.00
2017-05-06T17:27:12.282Z,52.10
2017-05-06T17:29:40.213Z,51.50
2017-05-06T17:34:38.092Z,53.30
2017-05-06T17:37:06.775Z,52.20
2017-05-06T17:39:35.887Z,51.90
2017-05-06T17:42:03.915Z,51.30
2017-05-06T17:44:31.851Z,52.60
2017-05-06T17:47:00.894Z,52.30
2017-05-06T17:51:58.143Z,51.20
2017-05-06T17:54:26.822Z,52.00
2017-05-06T17:59:24.802Z,51.80
2017-05-06T18:01:53.868Z,52.60
2017-05-06T18:06:51.904Z,52.40
2017-05-06T18:11:49.148Z,53.70
2017-05-06T18:14:17.450Z,52.60
2017-05-06T18:16:45.750Z,52.20
2017-05-06T18:19:13.729Z,54.30
2017-05-06T18:21:41.661Z,54.50
2017-05-06T18:24:09.966Z,53.90
2017-05-06T18:26:37.972Z,54.00
2017-05-06T18:29:06.289Z,54.40
2017-05-06T18:31:34.603Z,53.80
2017-05-06T18:34:03.228Z,53.60
2017-05-06T18:36:32.272Z,55.80
2017-05-06T18:39:00.591Z,54.10
2017-05-06T18:41:28.834Z,54.60
2017-05-06T18:43:56.762Z,54.00
2017-05-06T18:46:25.057Z,53.80
2017-05-06T18:48:53.807Z,53.50
2017-05-06T18:51:21.760Z,54.20
2017-05-06T18:53:50.812Z,55.30
2017-05-06T18:56:19.302Z,55.60
2017-05-06T19:01:16.502Z,55.30
2017-05-06T19:03:45.609Z,55.70
2017-05-06T19:06:13.915Z,54.00
2017-05-06T19:08:41.843Z,54.50
2017-05-06T19:13:39.098Z,53.80
2017-05-06T19:16:08.147Z,53.80
2017-05-06T19:18:37.572Z,55.30
2017-05-06T19:23:34.791Z,55.50
2017-05-06T19:26:02.795Z,55.60
2017-05-06T19:28:31.098Z,56.60
2017-05-06T19:31:00.139Z,55.90
2017-05-06T19:33:28.858Z,55.70
2017-05-06T19:35:59.740Z,55.90
2017-05-06T19:38:28.067Z,55.80
2017-05-06T19:43:25.295Z,57.80
2017-05-06T19:45:53.614Z,57.90
2017-05-06T19:48:22.325Z,58.20
2017-05-06T19:53:19.539Z,57.90
2017-05-06T19:55:49.239Z,58.70
2017-05-06T19:58:17.917Z,58.80
2017-05-06T20:00:46.959Z,59.70
2017-05-06T20:08:12.718Z,58.60
2017-05-06T20:10:41.080Z,59.40
2017-05-06T20:13:09.389Z,60.20
2017-05-06T20:15:37.712Z,59.80
2017-05-06T20:18:06.091Z,60.80
2017-05-06T20:20:35.168Z,59.00
2017-05-06T20:23:03.999Z,59.80
2017-05-06T20:25:33.124Z,59.50
2017-05-06T20:28:01.433Z,59.90
2017-05-06T20:30:29.362Z,59.90
2017-05-06T20:32:57.715Z,60.10
2017-05-06T20:35:26.015Z,61.00
2017-05-06T20:40:24.002Z,61.60
2017-05-06T20:42:51.949Z,62.90
2017-05-06T20:45:20.267Z,62.00
2017-05-06T20:47:48.615Z,62.30
2017-05-06T20:50:16.914Z,62.50
2017-05-06T20:52:44.846Z,64.00
2017-05-06T20:55:13.203Z,65.50
2017-05-06T20:57:41.505Z,64.60
2017-05-06T21:00:09.814Z,65.60
2017-05-06T21:02:38.655Z,66.40
2017-05-06T21:05:06.963Z,64.60
2017-05-06T21:07:35.290Z,66.50
2017-05-06T21:10:03.312Z,66.00
2017-05-06T21:12:31.243Z,66.60
2017-05-06T21:14:59.538Z,67.40
2017-05-06T21:17:27.519Z,66.90
2017-05-06T21:19:55.459Z,67.20
2017-05-06T21:22:23.783Z,67.50
2017-05-06T21:24:52.174Z,68.40
2017-05-06T21:27:20.854Z,69.00
2017-05-06T21:29:49.155Z,68.50
2017-05-06T21:32:17.506Z,69.40
2017-05-06T21:34:45.811Z,69.40
2017-05-06T21:39:43.815Z,70.40
2017-05-06T21:42:11.746Z,70.00
2017-05-06T21:44:39.677Z,70.10
2017-05-06T21:47:09.208Z,71.30
2017-05-06T21:49:37.158Z,70.90
2017-05-06T21:52:05.120Z,71.70
2017-05-06T21:54:33.904Z,71.80
2017-05-06T21:57:02.251Z,72.30
2017-05-06T21:59:30.562Z,72.50
2017-05-06T22:04:27.443Z,72.80
2017-05-06T22:06:55.742Z,72.70
2017-05-06T22:09:24.103Z,73.10
2017-05-06T22:11:52.422Z,73.30
2017-05-06T22:14:20.733Z,74.30
2017-05-06T22:16:49.011Z,73.50
2017-05-06T22:19:16.943Z,73.90
2017-05-06T22:21:45.255Z,74.70
2017-05-06T22:24:13.747Z,75.10
2017-05-06T22:26:42.755Z,74.00
2017-05-06T22:29:10.687Z,74.30
2017-05-06T22:31:39.120Z,74.80
2017-05-06T22:34:07.078Z,74.60
2017-05-06T22:36:35.398Z,75.00
2017-05-06T22:39:03.791Z,75.00
2017-05-06T22:46:29.553Z,75.30
2017-05-06T22:48:58.795Z,75.50
2017-05-06T22:51:27.106Z,75.80
2017-05-06T22:53:55.469Z,76.50
2017-05-06T22:58:52.677Z,76.60
2017-05-06T23:01:21.394Z,76.60
2017-05-06T23:03:50.460Z,76.70
2017-05-06T23:06:18.399Z,76.10
2017-05-06T23:08:46.756Z,76.50
2017-05-06T23:11:15.063Z,76.80
2017-05-06T23:16:12.295Z,77.10
2017-05-06T23:18:40.975Z,76.90
2017-05-06T23:21:08.920Z,77.00
2017-05-06T23:23:38.279Z,77.40
2017-05-06T23:26:06.231Z,76.90
2017-05-06T23:28:34.941Z,77.40
2017-05-06T23:31:03.636Z,77.00
2017-05-06T23:36:00.928Z,77.60
2017-05-06T23:38:29.975Z,77.20
2017-05-06T23:40:58.278Z,78.00
2017-05-06T23:43:27.094Z,77.70
2017-05-06T23:45:55.034Z,77.60
2017-05-06T23:50:52.569Z,78.20
2017-05-06T23:53:20.874Z,78.50
2017-05-06T23:55:49.563Z,78.70
2017-05-06T23:58:17.947Z,78.60
